createdAt,value
2023-04-26T00:00:26.527Z,164.14
2023-04-26T00:01:27.433Z,164.22
2023-04-26T00:02:26.595Z,165.41
2023-04-26T00:03:27.619Z,165.54
2023-04-26T00:04:26.722Z,162.75
2023-04-26T00:05:27.578Z,164.86
2023-04-26T00:06:27.607Z,163.54
2023-04-26T00:07:27.660Z,162.71
2023-04-26T00:08:27.682Z,164.35
2023-04-26T00:09:27.739Z,162.94
2023-04-26T00:10:27.770Z,163.44
2023-04-26T00:11:27.810Z,164.89
2023-04-26T00:12:27.855Z,164.32
2023-04-26T00:13:27.940Z,164.37
2023-04-26T00:14:27.946Z,162.22
2023-04-26T00:15:27.012Z,164.30
2023-04-26T00:16:27.111Z,163.63
2023-04-26T00:17:27.063Z,162.91
2023-04-26T00:18:27.116Z,165.38
2023-04-26T00:19:27.159Z,163.46
2023-04-26T00:20:28.211Z,163.95
2023-04-26T00:21:27.252Z,162.17
2023-04-26T00:22:28.297Z,164.14
2023-04-26T00:23:28.347Z,163.68
2023-04-26T00:24:28.391Z,162.36
2023-04-26T00:25:27.426Z,164.00
2023-04-26T00:26:27.498Z,163.21
2023-04-26T00:27:28.520Z,163.78
2023-04-26T00:28:28.571Z,164.00
2023-04-26T00:29:27.627Z,162.46
2023-04-26T00:30:28.663Z,162.31
2023-04-26T00:31:28.721Z,163.43
2023-04-26T00:32:28.972Z,161.67
2023-04-26T00:33:27.805Z,163.73
2023-04-26T00:34:28.841Z,162.53
2023-04-26T00:35:27.897Z,163.11
2023-04-26T00:36:28.943Z,163.10
2023-04-26T00:37:27.995Z,163.00
2023-04-26T00:38:29.046Z,162.57
2023-04-26T00:39:29.091Z,164.33
2023-04-26T00:40:29.135Z,162.17
2023-04-26T00:41:28.208Z,160.92
2023-04-26T00:42:29.244Z,163.33
2023-04-26T00:43:29.288Z,162.87
2023-04-26T00:44:29.325Z,163.26
2023-04-26T00:45:29.430Z,162.49
2023-04-26T00:46:29.477Z,162.92
2023-04-26T00:47:29.509Z,164.87
2023-04-26T00:48:29.540Z,161.61
2023-04-26T00:49:29.555Z,163.60
2023-04-26T00:50:29.606Z,163.37
2023-04-26T00:51:29.922Z,161.17
2023-04-26T00:52:28.714Z,164.02
2023-04-26T00:53:28.741Z,162.44
2023-04-26T00:54:28.805Z,163.68
2023-04-26T00:55:29.933Z,160.68
2023-04-26T00:56:28.899Z,163.67
2023-04-26T00:57:28.931Z,162.98
2023-04-26T00:58:29.988Z,161.61
2023-04-26T00:59:30.034Z,159.90
2023-04-26T01:00:29.070Z,161.71
2023-04-26T01:01:29.173Z,162.43
2023-04-26T01:02:30.288Z,161.65
2023-04-26T01:03:30.359Z,161.54
2023-04-26T01:04:30.413Z,161.23
2023-04-26T01:05:30.317Z,161.99
2023-04-26T01:06:30.372Z,162.18
2023-04-26T01:07:30.401Z,161.99
2023-04-26T01:08:30.458Z,160.51
2023-04-26T01:09:29.505Z,160.33
2023-04-26T01:10:30.867Z,162.71
2023-04-26T01:11:31.170Z,162.59
2023-04-26T01:12:29.651Z,160.89
2023-04-26T01:13:30.698Z,159.19
2023-04-26T01:14:29.766Z,161.02
2023-04-26T01:15:30.788Z,159.26
2023-04-26T01:16:29.886Z,159.91
2023-04-26T01:17:30.943Z,161.92
2023-04-26T01:18:30.946Z,161.69
2023-04-26T01:19:30.997Z,163.10
2023-04-26T01:20:30.081Z,160.19
2023-04-26T01:21:30.128Z,161.47
2023-04-26T01:22:30.210Z,162.11
2023-04-26T01:23:31.203Z,158.48
2023-04-26T01:24:30.254Z,158.71
2023-04-26T01:25:31.323Z,160.22
2023-04-26T01:26:30.376Z,159.30
2023-04-26T01:27:31.471Z,158.92
2023-04-26T01:28:31.509Z,161.43
2023-04-26T01:29:30.565Z,160.87
2023-04-26T01:30:30.616Z,159.64
2023-04-26T01:31:31.768Z,159.95
2023-04-26T01:32:31.762Z,160.60
2023-04-26T01:33:31.792Z,159.61
2023-04-26T01:34:31.836Z,160.96
2023-04-26T01:35:31.929Z,159.60
2023-04-26T01:36:32.311Z,161.19
2023-04-26T01:37:32.014Z,160.63
2023-04-26T01:38:32.080Z,160.89
2023-04-26T01:39:32.099Z,160.13
2023-04-26T01:40:32.169Z,160.27
2023-04-26T01:41:32.227Z,158.85
2023-04-26T01:42:31.284Z,158.88
2023-04-26T01:43:32.319Z,160.72
2023-04-26T01:44:32.395Z,158.24
2023-04-26T01:45:32.442Z,158.29
2023-04-26T01:46:31.567Z,158.66
2023-04-26T01:47:32.588Z,160.34
2023-04-26T01:48:32.601Z,160.74
2023-04-26T01:49:31.660Z,159.94
2023-04-26T01:50:31.719Z,160.11
2023-04-26T01:51:32.852Z,159.09
2023-04-26T01:52:32.826Z,157.54
2023-04-26T01:53:32.878Z,161.24
2023-04-26T01:54:32.961Z,158.70
2023-04-26T01:55:33.044Z,160.04
2023-04-26T01:56:32.080Z,158.00
2023-04-26T01:57:33.122Z,159.93
2023-04-26T01:58:32.189Z,158.05
2023-04-26T01:59:32.291Z,159.61
2023-04-26T02:00:33.305Z,159.51
2023-04-26T02:01:33.379Z,159.13
2023-04-26T02:02:32.443Z,157.53
2023-04-26T02:03:33.494Z,160.39
2023-04-26T02:04:33.510Z,160.64
2023-04-26T02:05:33.556Z,159.36
2023-04-26T02:06:33.671Z,159.45
2023-04-26T02:07:33.693Z,158.53
2023-04-26T02:08:33.756Z,158.76
2023-04-26T02:09:32.792Z,157.70
2023-04-26T02:10:32.829Z,157.87
2023-04-26T02:11:33.898Z,159.01
2023-04-26T02:12:33.967Z,157.71
2023-04-26T02:13:34.006Z,161.31
2023-04-26T02:14:34.072Z,160.75
2023-04-26T02:15:34.129Z,159.32
2023-04-26T02:16:33.219Z,157.89
2023-04-26T02:17:34.312Z,159.58
2023-04-26T02:18:34.318Z,157.95
2023-04-26T02:19:34.367Z,158.96
2023-04-26T02:20:33.427Z,158.54
2023-04-26T02:21:33.479Z,160.38
2023-04-26T02:22:34.552Z,160.48
2023-04-26T02:23:33.631Z,156.72
2023-04-26T02:24:33.759Z,159.44
2023-04-26T02:25:33.741Z,158.97
2023-04-26T02:26:34.807Z,157.57
2023-04-26T02:27:33.872Z,157.21
2023-04-26T02:28:34.916Z,157.54
2023-04-26T02:30:33.980Z,158.94
2023-04-26T02:31:34.991Z,159.11
2023-04-26T02:32:35.007Z,158.38
2023-04-26T02:33:34.947Z,156.59
2023-04-26T02:34:33.939Z,159.06
2023-04-26T02:35:34.941Z,158.62
2023-04-26T02:36:33.939Z,157.49
2023-04-26T02:37:34.929Z,155.82
2023-04-26T02:38:33.926Z,156.85
2023-04-26T02:39:34.941Z,158.86
2023-04-26T02:40:33.920Z,160.45
2023-04-26T02:41:34.954Z,158.74
2023-04-26T02:42:34.885Z,158.59
2023-04-26T02:43:34.870Z,159.48
2023-04-26T02:44:34.873Z,158.75
2023-04-26T02:45:34.878Z,157.00
2023-04-26T02:46:34.923Z,158.37
2023-04-26T02:47:33.931Z,156.65
2023-04-26T02:48:34.844Z,157.58
2023-04-26T02:49:34.847Z,157.04
2023-04-26T02:50:34.836Z,157.30
2023-04-26T02:51:34.841Z,157.59
2023-04-26T02:52:34.818Z,157.37
2023-04-26T02:53:34.886Z,157.54
2023-04-26T02:54:33.919Z,159.13
2023-04-26T02:55:34.004Z,158.17
2023-04-26T02:56:35.090Z,159.08
2023-04-26T02:57:35.088Z,157.33
2023-04-26T02:58:35.152Z,157.39
2023-04-26T02:59:35.205Z,158.71
2023-04-26T03:00:35.354Z,159.86
2023-04-26T03:01:34.417Z,157.88
2023-04-26T03:02:35.596Z,157.82
2023-04-26T03:03:35.576Z,157.18
2023-04-26T03:04:34.504Z,155.16
2023-04-26T03:05:34.565Z,157.63
2023-04-26T03:06:35.623Z,157.61
2023-04-26T03:07:34.678Z,156.56
2023-04-26T03:08:35.738Z,156.12
2023-04-26T03:09:35.810Z,157.00
2023-04-26T03:10:35.865Z,156.72
2023-04-26T03:11:35.978Z,156.90
2023-04-26T03:12:35.972Z,157.25
2023-04-26T03:13:36.045Z,157.71
2023-04-26T03:14:35.104Z,157.38
2023-04-26T03:15:35.191Z,157.90
2023-04-26T03:16:36.260Z,157.37
2023-04-26T03:17:36.340Z,155.45
2023-04-26T03:18:36.355Z,156.99
2023-04-26T03:19:35.430Z,157.32
2023-04-26T03:20:35.477Z,155.99
2023-04-26T03:21:36.550Z,158.17
2023-04-26T03:22:35.595Z,156.69
2023-04-26T03:23:35.680Z,155.54
2023-04-26T03:24:36.716Z,155.94
2023-04-26T03:25:35.784Z,157.31
2023-04-26T03:26:36.840Z,155.69
2023-04-26T03:27:35.921Z,155.68
2023-04-26T03:28:35.956Z,156.24
2023-04-26T03:29:36.025Z,157.75
2023-04-26T03:30:37.074Z,156.21
2023-04-26T03:31:36.218Z,155.74
2023-04-26T03:32:36.291Z,156.79
2023-04-26T03:33:37.262Z,156.54
2023-04-26T03:34:37.331Z,156.88
2023-04-26T03:35:37.382Z,158.37
2023-04-26T03:36:37.462Z,155.02
2023-04-26T03:37:36.539Z,157.68
2023-04-26T03:38:37.643Z,154.30
2023-04-26T03:39:37.650Z,155.58
2023-04-26T03:40:36.684Z,157.81
2023-04-26T03:41:37.768Z,157.53
2023-04-26T03:42:37.842Z,156.50
2023-04-26T03:43:37.934Z,155.05
2023-04-26T03:44:37.930Z,156.25
2023-04-26T03:45:37.024Z,155.78
2023-04-26T03:46:37.040Z,156.16
2023-04-26T03:47:38.112Z,154.74
2023-04-26T03:48:37.172Z,153.67
2023-04-26T03:49:37.191Z,154.88
2023-04-26T03:50:38.227Z,154.18
2023-04-26T03:51:38.302Z,155.62
2023-04-26T03:52:37.348Z,155.75
2023-04-26T03:53:38.424Z,152.74
2023-04-26T03:54:38.455Z,155.71
2023-04-26T03:55:38.503Z,156.58
2023-04-26T03:56:37.563Z,152.24
2023-04-26T03:57:37.680Z,155.46
2023-04-26T03:58:38.713Z,153.33
2023-04-26T03:59:37.741Z,155.44
2023-04-26T04:00:37.766Z,153.04
2023-04-26T04:01:38.801Z,156.54
2023-04-26T04:02:38.986Z,154.90
2023-04-26T04:03:41.002Z,155.09
2023-04-26T04:04:39.101Z,157.55
2023-04-26T04:05:37.962Z,154.87
2023-04-26T04:06:37.907Z,156.26
2023-04-26T04:07:37.899Z,153.75
2023-04-26T04:08:37.878Z,153.40
2023-04-26T04:09:38.873Z,156.04
2023-04-26T04:10:38.859Z,153.22
2023-04-26T04:11:38.859Z,154.79
2023-04-26T04:12:38.848Z,152.75
2023-04-26T04:13:38.848Z,153.49
2023-04-26T04:14:37.841Z,151.27
2023-04-26T04:15:38.867Z,152.48
2023-04-26T04:16:38.813Z,153.55
2023-04-26T04:17:39.033Z,150.62
2023-04-26T04:18:38.818Z,152.92
2023-04-26T04:19:38.806Z,153.65
2023-04-26T04:20:38.792Z,154.23
2023-04-26T04:21:38.789Z,151.48
2023-04-26T04:22:37.794Z,153.13
2023-04-26T04:23:38.766Z,150.80
2023-04-26T04:24:38.768Z,152.53
2023-04-26T04:25:37.785Z,152.95
2023-04-26T04:26:37.776Z,151.67
2023-04-26T04:27:38.802Z,151.75
2023-04-26T04:28:38.741Z,152.04
2023-04-26T04:29:37.753Z,151.68
2023-04-26T04:30:37.825Z,151.06
2023-04-26T04:31:38.869Z,151.54
2023-04-26T04:32:38.902Z,153.22
2023-04-26T04:33:38.919Z,152.59
2023-04-26T04:34:37.968Z,152.98
2023-04-26T04:35:37.996Z,151.52
2023-04-26T04:36:38.027Z,153.29
2023-04-26T04:37:38.085Z,152.44
2023-04-26T04:38:38.104Z,151.11
2023-04-26T04:39:38.158Z,153.55
2023-04-26T04:40:38.204Z,152.36
2023-04-26T04:41:39.247Z,151.10
2023-04-26T04:42:39.293Z,152.48
2023-04-26T04:43:38.331Z,150.15
2023-04-26T04:44:39.372Z,151.56
2023-04-26T04:45:39.436Z,148.93
2023-04-26T04:46:38.546Z,152.95
2023-04-26T04:47:38.570Z,152.35
2023-04-26T04:48:39.556Z,152.07
2023-04-26T04:49:38.599Z,151.82
2023-04-26T04:50:39.631Z,151.91
2023-04-26T04:51:39.677Z,150.41
2023-04-26T04:52:38.713Z,153.90
2023-04-26T04:53:39.750Z,153.22
2023-04-26T04:54:39.805Z,153.69
2023-04-26T04:55:39.868Z,153.63
2023-04-26T04:56:38.892Z,152.46
2023-04-26T04:57:42.651Z,152.47
2023-04-26T04:58:38.961Z,158.82
2023-04-26T04:59:40.402Z,155.52
2023-04-26T05:00:39.903Z,156.38
2023-04-26T05:01:39.921Z,154.87
2023-04-26T05:02:38.959Z,155.45
2023-04-26T05:03:39.976Z,153.08
2023-04-26T05:04:40.076Z,152.34
2023-04-26T05:05:39.927Z,153.81
2023-04-26T05:06:39.892Z,154.07
2023-04-26T05:07:39.871Z,153.99
2023-04-26T05:08:39.866Z,151.04
2023-04-26T05:09:38.842Z,153.28
2023-04-26T05:10:39.826Z,155.41
2023-04-26T05:11:38.860Z,154.77
2023-04-26T05:12:39.820Z,152.18
2023-04-26T05:13:38.828Z,154.31
2023-04-26T05:14:39.810Z,152.20
2023-04-26T05:15:38.797Z,154.71
2023-04-26T05:16:39.837Z,155.58
2023-04-26T05:17:39.837Z,153.09
2023-04-26T05:18:38.781Z,156.72
2023-04-26T05:19:38.807Z,156.22
2023-04-26T05:20:38.807Z,154.11
2023-04-26T05:21:39.790Z,153.97
2023-04-26T05:22:39.841Z,154.54
2023-04-26T05:23:39.889Z,155.41
2023-04-26T05:24:39.928Z,154.89
2023-04-26T05:25:38.946Z,155.84
2023-04-26T05:26:39.993Z,155.55
2023-04-26T05:27:39.037Z,156.07
2023-04-26T05:28:39.083Z,154.50
2023-04-26T05:29:39.122Z,155.02
2023-04-26T05:30:39.153Z,154.35
2023-04-26T05:31:40.259Z,154.94
2023-04-26T05:32:40.354Z,155.82
2023-04-26T05:33:39.302Z,153.52
2023-04-26T05:34:39.527Z,152.25
2023-04-26T05:35:40.754Z,153.59
2023-04-26T05:36:40.408Z,153.31
2023-04-26T05:37:40.446Z,154.07
2023-04-26T05:38:39.481Z,151.88
2023-04-26T05:39:40.502Z,152.01
2023-04-26T05:40:39.571Z,152.34
2023-04-26T05:41:40.613Z,154.08
2023-04-26T05:42:39.638Z,155.67
2023-04-26T05:43:41.192Z,156.45
2023-04-26T05:44:40.892Z,156.63
2023-04-26T05:45:41.209Z,156.18
2023-04-26T05:46:41.303Z,154.95
2023-04-26T05:47:41.885Z,155.15
2023-04-26T05:48:40.077Z,154.74
2023-04-26T05:49:40.387Z,157.35
2023-04-26T05:50:41.346Z,158.04
2023-04-26T05:51:40.232Z,158.26
2023-04-26T05:52:41.708Z,159.44
2023-04-26T05:53:41.246Z,160.03
2023-04-26T05:54:41.476Z,162.69
2023-04-26T05:55:41.741Z,164.30
2023-04-26T05:56:41.663Z,165.61
2023-04-26T05:57:41.985Z,167.06
2023-04-26T05:58:41.506Z,170.47
2023-04-26T05:59:41.628Z,173.44
2023-04-26T06:00:41.325Z,175.95
2023-04-26T06:01:41.605Z,179.92
2023-04-26T06:02:41.546Z,180.66
2023-04-26T06:03:41.491Z,185.80
2023-04-26T06:04:40.461Z,188.89
2023-04-26T06:05:40.302Z,191.82
2023-04-26T06:06:41.392Z,194.99
2023-04-26T06:07:41.671Z,198.92
2023-04-26T06:08:41.294Z,201.56
2023-04-26T06:09:41.388Z,204.47
2023-04-26T06:10:41.456Z,209.18
2023-04-26T06:11:41.460Z,214.20
2023-04-26T06:12:41.530Z,219.32
2023-04-26T06:13:41.611Z,221.73
2023-04-26T06:14:41.641Z,227.65
2023-04-26T06:15:41.694Z,231.96
2023-04-26T06:16:43.736Z,234.43
2023-04-26T06:17:40.771Z,237.34
2023-04-26T06:18:41.713Z,240.01
2023-04-26T06:19:41.700Z,245.10
2023-04-26T06:20:41.708Z,250.23
2023-04-26T06:21:41.694Z,249.69
2023-04-26T06:22:41.708Z,250.00
2023-04-26T06:23:41.747Z,249.23
2023-04-26T06:24:41.673Z,250.00
2023-04-26T06:25:41.681Z,249.35
2023-04-26T06:26:41.654Z,249.26
2023-04-26T06:27:40.668Z,249.67
2023-04-26T06:28:42.428Z,248.75
2023-04-26T06:29:41.644Z,250.00
2023-04-26T06:30:41.653Z,248.88
2023-04-26T06:31:41.710Z,249.55
2023-04-26T06:32:41.695Z,249.17
2023-04-26T06:33:41.617Z,249.75
2023-04-26T06:34:40.611Z,249.80
2023-04-26T06:35:40.614Z,247.35
2023-04-26T06:36:40.585Z,248.32
2023-04-26T06:37:41.594Z,248.76
2023-04-26T06:38:41.575Z,249.96
2023-04-26T06:39:41.696Z,250.00
2023-04-26T06:40:41.566Z,250.00
2023-04-26T06:41:41.540Z,249.88
2023-04-26T06:42:41.572Z,250.00
2023-04-26T06:43:41.549Z,248.90
2023-04-26T06:44:41.818Z,250.00
2023-04-26T06:45:43.259Z,248.14
2023-04-26T06:46:41.546Z,248.31
2023-04-26T06:47:41.529Z,247.66
2023-04-26T06:48:40.502Z,249.84
2023-04-26T06:49:41.554Z,250.00
2023-04-26T06:50:40.531Z,250.00
2023-04-26T06:51:41.491Z,249.73
2023-04-26T06:52:40.481Z,250.00
2023-04-26T06:53:41.939Z,250.00
2023-04-26T06:54:53.590Z,249.37
2023-04-26T06:55:41.498Z,249.71
2023-04-26T06:56:40.461Z,251.90
2023-04-26T06:57:41.458Z,254.60
2023-04-26T06:58:42.445Z,259.12
2023-04-26T06:59:41.441Z,267.94
2023-04-26T07:00:40.433Z,253.58
2023-04-26T07:01:41.447Z,249.28
2023-04-26T07:02:41.622Z,247.47
2023-04-26T07:03:41.553Z,244.66
2023-04-26T07:04:41.556Z,238.54
2023-04-26T07:05:41.667Z,233.68
2023-04-26T07:06:41.464Z,217.72
2023-04-26T07:07:41.945Z,220.66
2023-04-26T07:08:41.371Z,213.60
2023-04-26T07:09:41.365Z,210.93
2023-04-26T07:10:40.359Z,210.58
2023-04-26T07:11:40.350Z,210.96
2023-04-26T07:12:41.349Z,212.46
2023-04-26T07:13:41.340Z,212.29
2023-04-26T07:14:41.345Z,212.98
2023-04-26T07:15:41.439Z,212.61
2023-04-26T07:16:41.443Z,210.78
2023-04-26T07:17:40.317Z,210.61
2023-04-26T07:18:40.553Z,211.37
2023-04-26T07:19:41.657Z,211.04
2023-04-26T07:20:42.601Z,211.93
2023-04-26T07:21:41.357Z,211.99
2023-04-26T07:22:41.346Z,212.58
2023-04-26T07:23:41.342Z,212.01
2023-04-26T07:24:41.415Z,210.73
2023-04-26T07:25:40.428Z,214.62
2023-04-26T07:26:41.473Z,214.30
2023-04-26T07:27:40.578Z,214.22
2023-04-26T07:28:41.652Z,214.16
2023-04-26T07:29:41.650Z,215.52
2023-04-26T07:30:40.727Z,215.45
2023-04-26T07:31:41.762Z,217.11
2023-04-26T07:32:41.901Z,217.03
2023-04-26T07:33:41.935Z,217.19
2023-04-26T07:34:41.066Z,216.79
2023-04-26T07:35:42.026Z,215.76
2023-04-26T07:36:42.090Z,219.19
2023-04-26T07:37:42.118Z,218.90
2023-04-26T07:38:42.172Z,220.12
2023-04-26T07:39:42.232Z,217.67
2023-04-26T07:40:41.274Z,218.60
2023-04-26T07:41:43.729Z,218.26
2023-04-26T07:42:42.592Z,220.18
2023-04-26T07:43:42.606Z,219.54
2023-04-26T07:44:42.654Z,220.24
2023-04-26T07:45:42.740Z,224.65
2023-04-26T07:46:41.759Z,233.27
2023-04-26T07:47:41.817Z,233.20
2023-04-26T07:48:41.971Z,230.01
2023-04-26T07:49:41.862Z,226.97
2023-04-26T07:50:42.910Z,224.05
2023-04-26T07:51:42.980Z,225.17
2023-04-26T07:52:43.032Z,223.43
2023-04-26T07:53:43.480Z,225.18
2023-04-26T07:54:42.164Z,226.57
2023-04-26T07:55:43.262Z,220.98
2023-04-26T07:56:42.243Z,221.46
2023-04-26T07:57:43.300Z,221.74
2023-04-26T07:58:42.432Z,218.88
2023-04-26T07:59:43.318Z,219.53
2023-04-26T08:00:42.328Z,218.74
2023-04-26T08:01:43.368Z,219.59
2023-04-26T08:02:45.279Z,217.43
2023-04-26T08:03:43.557Z,219.41
2023-04-26T08:04:43.528Z,217.08
2023-04-26T08:05:42.434Z,214.65
2023-04-26T08:06:43.280Z,217.55
2023-04-26T08:07:42.269Z,215.25
2023-04-26T08:08:43.290Z,216.07
2023-04-26T08:09:43.268Z,215.00
2023-04-26T08:10:42.262Z,214.41
2023-04-26T08:11:43.299Z,214.25
2023-04-26T08:12:42.238Z,212.67
2023-04-26T08:13:43.269Z,215.61
2023-04-26T08:14:43.309Z,215.95
2023-04-26T08:15:42.252Z,214.51
2023-04-26T08:16:43.274Z,213.67
2023-04-26T08:17:42.269Z,216.95
2023-04-26T08:18:45.345Z,217.62
2023-04-26T08:19:43.209Z,217.84
2023-04-26T08:20:43.245Z,217.26
2023-04-26T08:21:43.170Z,215.86
2023-04-26T08:22:42.164Z,217.58
2023-04-26T08:23:43.213Z,218.79
2023-04-26T08:24:43.162Z,217.12
2023-04-26T08:25:43.158Z,213.98
2023-04-26T08:26:43.179Z,213.79
2023-04-26T08:27:42.140Z,212.86
2023-04-26T08:28:42.147Z,215.27
2023-04-26T08:29:42.130Z,215.05
2023-04-26T08:30:42.294Z,215.76
2023-04-26T08:31:42.233Z,213.33
2023-04-26T08:32:43.142Z,212.88
2023-04-26T08:33:43.113Z,212.69
2023-04-26T08:34:43.162Z,213.61
2023-04-26T08:35:42.105Z,212.06
2023-04-26T08:36:43.138Z,211.93
2023-04-26T08:37:42.079Z,211.99
2023-04-26T08:38:43.105Z,212.20
2023-04-26T08:39:43.045Z,212.27
2023-04-26T08:40:42.048Z,206.71
2023-04-26T08:41:44.002Z,207.32
2023-04-26T08:42:42.047Z,209.00
2023-04-26T08:43:42.970Z,207.32
2023-04-26T08:44:42.037Z,205.36
2023-04-26T08:45:42.082Z,201.95
2023-04-26T08:46:43.130Z,203.00
2023-04-26T08:47:43.101Z,203.27
2023-04-26T08:48:42.996Z,204.42
2023-04-26T08:49:43.004Z,203.69
2023-04-26T08:50:43.014Z,198.92
2023-04-26T08:51:43.053Z,198.62
2023-04-26T08:52:43.176Z,200.47
2023-04-26T08:53:42.163Z,199.93
2023-04-26T08:54:43.223Z,199.09
2023-04-26T08:55:43.290Z,197.72
2023-04-26T08:56:43.329Z,201.55
2023-04-26T08:57:43.409Z,201.60
2023-04-26T08:58:43.517Z,201.07
2023-04-26T08:59:43.511Z,198.79
2023-04-26T09:00:43.613Z,200.21
2023-04-26T09:01:43.663Z,201.21
2023-04-26T09:02:42.993Z,201.58
2023-04-26T09:03:42.987Z,202.26
2023-04-26T09:04:43.915Z,200.11
2023-04-26T09:05:43.847Z,200.48
2023-04-26T09:06:43.934Z,199.34
2023-04-26T09:07:43.949Z,198.79
2023-04-26T09:08:43.514Z,198.39
2023-04-26T09:09:44.070Z,198.64
2023-04-26T09:10:44.120Z,198.84
2023-04-26T09:11:43.164Z,198.73
2023-04-26T09:12:44.218Z,199.47
2023-04-26T09:13:44.315Z,200.74
2023-04-26T09:14:43.369Z,200.91
2023-04-26T09:15:43.429Z,201.21
2023-04-26T09:16:44.647Z,201.03
2023-04-26T09:17:44.670Z,200.14
2023-04-26T09:18:43.609Z,200.94
2023-04-26T09:19:44.641Z,200.51
2023-04-26T09:20:44.684Z,199.96
2023-04-26T09:21:44.761Z,199.17
2023-04-26T09:22:44.801Z,199.43
2023-04-26T09:23:44.924Z,198.57
2023-04-26T09:24:43.929Z,199.12
2023-04-26T09:25:44.980Z,199.05
2023-04-26T09:26:44.032Z,198.63
2023-04-26T09:27:45.106Z,150.56
2023-04-26T09:28:44.166Z,98.03
2023-04-26T09:29:44.150Z,50.77
2023-04-26T09:30:44.174Z,21.31
2023-04-26T09:31:47.802Z,27.80
2023-04-26T09:32:45.237Z,22.36
2023-04-26T09:33:44.156Z,28.74
2023-04-26T09:34:45.192Z,15.29
2023-04-26T09:35:44.196Z,27.99
2023-04-26T09:36:45.166Z,42.29
2023-04-26T09:37:57.605Z,21.97
2023-04-26T09:38:45.149Z,22.64
2023-04-26T09:39:45.114Z,16.00
2023-04-26T09:40:45.122Z,30.86
2023-04-26T09:41:44.110Z,49.93
2023-04-26T09:42:45.133Z,44.77
2023-04-26T09:43:45.128Z,66.30
2023-04-26T09:44:45.090Z,51.72
2023-04-26T09:45:45.068Z,24.14
2023-04-26T09:46:45.133Z,45.93
2023-04-26T09:47:44.115Z,19.22
2023-04-26T09:48:46.636Z,0.00
2023-04-26T09:49:44.075Z,0.00
2023-04-26T09:50:45.117Z,0.00
2023-04-26T09:51:44.034Z,6.95
2023-04-26T09:52:45.049Z,22.24
2023-04-26T09:53:44.087Z,33.64
2023-04-26T09:54:45.018Z,33.51
2023-04-26T09:55:45.047Z,40.11
2023-04-26T09:56:45.062Z,40.29
2023-04-26T09:57:45.027Z,48.06
2023-04-26T09:58:45.048Z,47.83
2023-04-26T09:59:44.985Z,53.78
2023-04-26T10:00:44.029Z,58.45
2023-04-26T10:01:44.975Z,61.48
2023-04-26T10:02:45.049Z,60.19
2023-04-26T10:03:44.048Z,59.48
2023-04-26T10:04:44.988Z,58.85
2023-04-26T10:05:43.991Z,52.88
2023-04-26T10:06:44.999Z,48.95
2023-04-26T10:07:44.961Z,58.84
2023-04-26T10:08:43.920Z,60.89
2023-04-26T10:09:44.904Z,58.92
2023-04-26T10:10:44.907Z,61.00
2023-04-26T10:11:44.907Z,60.22
2023-04-26T10:12:43.891Z,64.77
2023-04-26T10:13:44.905Z,67.66
2023-04-26T10:14:44.883Z,71.43
2023-04-26T10:15:44.874Z,69.91
2023-04-26T10:16:43.902Z,70.01
2023-04-26T10:17:44.927Z,71.98
2023-04-26T10:18:43.857Z,70.57
2023-04-26T10:19:43.857Z,76.26
2023-04-26T10:20:43.857Z,73.64
2023-04-26T10:21:44.832Z,77.25
2023-04-26T10:22:43.843Z,77.39
2023-04-26T10:23:44.812Z,72.07
2023-04-26T10:24:44.806Z,68.97
2023-04-26T10:25:43.803Z,73.74
2023-04-26T10:26:44.817Z,70.62
2023-04-26T10:27:44.796Z,67.79
2023-04-26T10:28:44.845Z,64.18
2023-04-26T10:29:44.774Z,71.38
2023-04-26T10:30:43.783Z,65.15
2023-04-26T10:31:44.788Z,61.83
2023-04-26T10:32:44.787Z,59.12
2023-04-26T10:33:44.767Z,55.04
2023-04-26T10:34:43.750Z,53.19
2023-04-26T10:35:44.740Z,50.44
2023-04-26T10:36:44.732Z,48.26
2023-04-26T10:37:44.726Z,51.24
2023-04-26T10:38:44.746Z,53.32
2023-04-26T10:39:44.711Z,50.78
2023-04-26T10:40:43.730Z,55.47
2023-04-26T10:41:44.743Z,45.75
2023-04-26T10:42:44.695Z,58.25
2023-04-26T10:43:43.724Z,55.45
2023-04-26T10:44:44.682Z,44.55
2023-04-26T10:45:43.744Z,45.97
2023-04-26T10:46:43.731Z,50.40
2023-04-26T10:47:43.761Z,61.68
2023-04-26T10:48:44.736Z,63.18
2023-04-26T10:49:43.743Z,63.02
2023-04-26T10:50:44.741Z,57.71
2023-04-26T10:51:43.761Z,58.42
2023-04-26T10:52:43.800Z,61.81
2023-04-26T10:53:44.783Z,66.56
2023-04-26T10:54:43.807Z,66.85
2023-04-26T10:55:44.806Z,56.65
2023-04-26T10:56:44.821Z,51.72
2023-04-26T10:57:44.825Z,59.99
2023-04-26T10:58:44.844Z,49.85
2023-04-26T10:59:54.215Z,51.13
2023-04-26T11:00:44.853Z,48.89
2023-04-26T11:01:44.874Z,45.14
2023-04-26T11:02:44.913Z,40.32
2023-04-26T11:03:45.064Z,38.17
2023-04-26T11:04:44.929Z,40.14
2023-04-26T11:05:44.837Z,46.07
2023-04-26T11:06:44.812Z,51.77
2023-04-26T11:07:43.864Z,47.08
2023-04-26T11:08:44.800Z,40.72
2023-04-26T11:09:43.822Z,44.82
2023-04-26T11:10:44.886Z,43.73
2023-04-26T11:11:44.786Z,40.84
2023-04-26T11:12:43.806Z,33.34
2023-04-26T11:13:43.776Z,30.60
2023-04-26T11:14:44.759Z,33.27
2023-04-26T11:15:43.802Z,40.68
2023-04-26T11:16:43.773Z,32.67
2023-04-26T11:17:44.792Z,31.47
2023-04-26T11:18:44.764Z,31.65
2023-04-26T11:19:43.739Z,40.31
2023-04-26T11:20:44.735Z,38.67
2023-04-26T11:21:43.730Z,41.13
2023-04-26T11:22:44.694Z,33.21
2023-04-26T11:23:44.705Z,38.09
2023-04-26T11:24:43.708Z,34.31
2023-04-26T11:25:44.707Z,42.23
2023-04-26T11:26:44.710Z,59.77
2023-04-26T11:27:44.658Z,55.18
2023-04-26T11:28:44.666Z,50.07
2023-04-26T11:29:44.649Z,65.59
2023-04-26T11:30:43.639Z,65.68
2023-04-26T11:31:44.775Z,57.16
2023-04-26T11:32:43.656Z,56.66
2023-04-26T11:33:43.623Z,61.62
2023-04-26T11:34:43.643Z,57.43
2023-04-26T11:35:44.604Z,55.30
2023-04-26T11:36:43.607Z,58.51
2023-04-26T11:37:43.598Z,68.40
2023-04-26T11:38:43.596Z,72.22
2023-04-26T11:39:43.576Z,76.14
2023-04-26T11:40:43.585Z,85.24
2023-04-26T11:41:44.582Z,84.78
2023-04-26T11:42:44.592Z,88.29
2023-04-26T11:43:44.682Z,95.95
2023-04-26T11:44:45.732Z,99.32
2023-04-26T11:45:44.547Z,103.35
2023-04-26T11:46:43.568Z,105.58
2023-04-26T11:47:43.582Z,107.64
2023-04-26T11:48:43.527Z,116.19
2023-04-26T11:49:44.530Z,123.74
2023-04-26T11:50:44.554Z,129.45
2023-04-26T11:51:44.575Z,135.56
2023-04-26T11:52:44.659Z,132.79
2023-04-26T11:53:43.650Z,137.44
2023-04-26T11:54:45.048Z,133.29
2023-04-26T11:55:44.717Z,130.40
2023-04-26T11:56:43.790Z,130.63
2023-04-26T11:57:44.816Z,137.19
2023-04-26T11:58:44.012Z,140.45
2023-04-26T11:59:44.950Z,143.04
2023-04-26T12:00:44.972Z,143.40
2023-04-26T12:01:44.072Z,139.26
2023-04-26T12:02:44.214Z,137.48
2023-04-26T12:03:45.393Z,138.91
2023-04-26T12:04:45.534Z,141.41
2023-04-26T12:05:45.289Z,140.91
2023-04-26T12:06:45.358Z,141.95
2023-04-26T12:07:45.400Z,141.37
2023-04-26T12:08:44.479Z,142.66
2023-04-26T12:09:45.541Z,141.04
2023-04-26T12:10:44.610Z,139.78
2023-04-26T12:11:45.654Z,141.52
2023-04-26T12:12:45.742Z,142.03
2023-04-26T12:13:45.778Z,142.69
2023-04-26T12:14:44.889Z,144.44
2023-04-26T12:15:45.940Z,145.12
2023-04-26T12:16:44.987Z,147.89
2023-04-26T12:17:46.059Z,148.03
2023-04-26T12:18:45.095Z,149.06
2023-04-26T12:19:45.183Z,149.29
2023-04-26T12:20:46.217Z,149.13
2023-04-26T12:21:46.303Z,148.32
2023-04-26T12:22:46.355Z,150.40
2023-04-26T12:23:46.400Z,149.97
2023-04-26T12:24:46.458Z,149.40
2023-04-26T12:25:45.584Z,148.22
2023-04-26T12:26:45.759Z,150.37
2023-04-26T12:27:45.642Z,151.06
2023-04-26T12:28:45.712Z,146.58
2023-04-26T12:29:47.142Z,141.11
2023-04-26T12:30:45.729Z,142.24
2023-04-26T12:31:46.865Z,142.71
2023-04-26T12:32:46.851Z,142.33
2023-04-26T12:33:45.824Z,139.96